createdAt,value
2023-03-06T00:00:53.276Z,97235.44
2023-03-06T00:03:21.243Z,97231.84
2023-03-06T00:05:48.509Z,97234.84
2023-03-06T00:08:16.321Z,97229.81
2023-03-06T00:10:43.409Z,97224.19
2023-03-06T00:13:13.787Z,97231.44
2023-03-06T00:15:41.097Z,97225.78
2023-03-06T00:18:08.876Z,97226.72
2023-03-06T00:20:36.676Z,97238.59
2023-03-06T00:23:04.601Z,97230.09
2023-03-06T00:25:31.861Z,97235.16
2023-03-06T00:27:58.938Z,97232.06
2023-03-06T00:30:26.097Z,97231.97
2023-03-06T00:32:53.788Z,97238.06
2023-03-06T00:35:21.417Z,97239.00
2023-03-06T00:37:48.509Z,97238.28
2023-03-06T00:40:19.913Z,97231.59
2023-03-06T00:42:47.708Z,97227.97
2023-03-06T00:45:15.437Z,97234.91
2023-03-06T00:47:42.974Z,97240.63
2023-03-06T00:50:11.087Z,97238.78
2023-03-06T00:52:38.206Z,97236.09
2023-03-06T00:55:06.399Z,97240.94
2023-03-06T00:57:33.453Z,97230.91
2023-03-06T01:00:00.549Z,97237.63
2023-03-06T01:02:27.782Z,97239.38
2023-03-06T01:04:54.997Z,97228.47
2023-03-06T01:07:22.036Z,97234.78
2023-03-06T01:09:50.849Z,97232.00
2023-03-06T01:12:18.039Z,97237.59
2023-03-06T01:14:45.558Z,97234.06
2023-03-06T01:17:12.749Z,97240.06
2023-03-06T01:19:39.909Z,97244.72
2023-03-06T01:22:06.995Z,97239.78
2023-03-06T01:24:34.055Z,97234.91
2023-03-06T01:27:01.190Z,97234.50
2023-03-06T01:29:28.264Z,97230.38
2023-03-06T01:31:55.425Z,97233.28
2023-03-06T01:34:22.672Z,97231.72
2023-03-06T01:36:49.783Z,97231.09
2023-03-06T01:39:16.841Z,97232.16
2023-03-06T01:41:43.940Z,97229.66
2023-03-06T01:44:13.921Z,97244.88
2023-03-06T01:46:45.216Z,97247.22
2023-03-06T01:49:29.641Z,97255.72
2023-03-06T01:52:05.978Z,97248.81
2023-03-06T01:54:36.529Z,97265.44
2023-03-06T01:57:11.886Z,97277.78
2023-03-06T01:59:40.837Z,97261.84
2023-03-06T02:02:10.835Z,97272.19
2023-03-06T02:04:40.458Z,97278.72
2023-03-06T02:07:08.542Z,97286.47
2023-03-06T02:09:37.884Z,97281.19
2023-03-06T02:12:13.588Z,97287.28
2023-03-06T02:14:42.389Z,97272.59
2023-03-06T02:17:11.873Z,97269.59
2023-03-06T02:20:00.746Z,97279.59
2023-03-06T02:22:38.078Z,97268.75
2023-03-06T02:25:16.003Z,97275.88
2023-03-06T02:27:44.417Z,97271.09
2023-03-06T02:30:16.805Z,97286.22
2023-03-06T02:32:43.973Z,97287.72
2023-03-06T02:35:22.710Z,97292.25
2023-03-06T02:37:50.230Z,97282.94
2023-03-06T02:40:21.021Z,97291.22
2023-03-06T02:42:51.039Z,97298.34
2023-03-06T02:45:30.528Z,97297.22
2023-03-06T02:47:57.609Z,97295.56
2023-03-06T02:50:24.826Z,97287.28
2023-03-06T02:52:51.924Z,97287.50
2023-03-06T02:55:19.119Z,97297.41
2023-03-06T02:57:46.681Z,97302.06
2023-03-06T03:00:15.064Z,97293.25
2023-03-06T03:02:43.726Z,97300.16
2023-03-06T03:05:10.892Z,97299.34
2023-03-06T03:07:41.777Z,97308.69
2023-03-06T03:10:10.745Z,97303.09
2023-03-06T03:12:38.456Z,97300.72
2023-03-06T03:15:06.413Z,97305.44
2023-03-06T03:17:36.459Z,97299.75
2023-03-06T03:20:04.888Z,97304.84
2023-03-06T03:22:32.080Z,97313.53
2023-03-06T03:24:59.167Z,97314.09
2023-03-06T03:27:27.028Z,97313.97
2023-03-06T03:29:57.690Z,97312.75
2023-03-06T03:32:25.157Z,97310.75
2023-03-06T03:34:52.848Z,97311.19
2023-03-06T03:37:20.172Z,97305.69
2023-03-06T03:39:47.398Z,97312.94
2023-03-06T03:42:14.574Z,97314.41
2023-03-06T03:44:41.732Z,97306.41
2023-03-06T03:47:08.809Z,97319.75
2023-03-06T03:49:36.421Z,97316.84
2023-03-06T03:52:04.026Z,97315.19
2023-03-06T03:54:33.820Z,97306.53
2023-03-06T03:57:01.004Z,97322.13
2023-03-06T03:59:32.979Z,97325.63
2023-03-06T04:02:21.970Z,97332.81
2023-03-06T04:04:57.596Z,97330.59
2023-03-06T04:07:24.981Z,97337.06
2023-03-06T04:09:52.148Z,97328.38
2023-03-06T04:12:19.564Z,97321.88
2023-03-06T04:14:47.633Z,97328.69
2023-03-06T04:17:15.647Z,97326.69
2023-03-06T04:19:43.178Z,97331.88
2023-03-06T04:22:10.276Z,97327.38
2023-03-06T04:24:39.388Z,97330.91
2023-03-06T04:27:06.863Z,97336.66
2023-03-06T04:29:34.234Z,97336.22
2023-03-06T04:32:02.132Z,97343.63
2023-03-06T04:34:29.418Z,97340.16
2023-03-06T04:36:57.599Z,97341.16
2023-03-06T04:39:24.818Z,97344.00
2023-03-06T04:41:51.985Z,97347.78
2023-03-06T04:44:19.146Z,97344.38
2023-03-06T04:46:46.251Z,97347.03
2023-03-06T04:49:13.360Z,97349.63
2023-03-06T04:51:40.485Z,97366.00
2023-03-06T04:54:07.598Z,97356.72
2023-03-06T04:56:34.768Z,97360.75
2023-03-06T04:59:04.396Z,97357.00
2023-03-06T05:01:31.562Z,97353.91
2023-03-06T05:03:58.679Z,97355.81
2023-03-06T05:06:25.717Z,97372.63
2023-03-06T05:08:52.830Z,97375.31
2023-03-06T05:11:19.965Z,97383.50
2023-03-06T05:13:47.055Z,97384.72
2023-03-06T05:16:14.223Z,97393.84
2023-03-06T05:18:41.333Z,97392.75
2023-03-06T05:21:08.511Z,97393.06
2023-03-06T05:23:38.645Z,97400.13
2023-03-06T05:26:08.966Z,97399.84
2023-03-06T05:28:36.211Z,97403.66
2023-03-06T05:31:03.643Z,97401.81
2023-03-06T05:33:33.219Z,97401.81
2023-03-06T05:36:00.629Z,97407.88
2023-03-06T05:38:28.474Z,97407.81
2023-03-06T05:40:56.230Z,97406.66
2023-03-06T05:43:23.763Z,97411.53
2023-03-06T05:45:53.052Z,97418.09
2023-03-06T05:48:20.242Z,97422.22
2023-03-06T05:50:55.631Z,97417.56
2023-03-06T05:53:22.753Z,97422.50
2023-03-06T05:55:57.598Z,97417.47
2023-03-06T05:58:24.726Z,97419.16
2023-03-06T06:00:52.335Z,97422.16
2023-03-06T06:03:20.481Z,97426.13
2023-03-06T06:05:47.593Z,97415.66
2023-03-06T06:08:14.861Z,97425.00
2023-03-06T06:10:42.026Z,97424.28
2023-03-06T06:13:09.187Z,97422.53
2023-03-06T06:15:38.395Z,97433.25
2023-03-06T06:18:05.637Z,97438.81
2023-03-06T06:20:32.864Z,97432.09
2023-03-06T06:23:00.174Z,97438.59
2023-03-06T06:25:27.340Z,97439.63
2023-03-06T06:27:57.930Z,97441.63
2023-03-06T06:30:25.432Z,97453.22
2023-03-06T06:32:52.605Z,97441.53
2023-03-06T06:35:19.736Z,97447.44
2023-03-06T06:37:46.865Z,97446.44
2023-03-06T06:40:14.210Z,97455.84
2023-03-06T06:42:41.837Z,97447.47
2023-03-06T06:45:11.078Z,97459.84
2023-03-06T06:47:41.518Z,97450.09
2023-03-06T06:50:13.183Z,97455.63
2023-03-06T06:52:40.591Z,97462.56
2023-03-06T06:55:08.287Z,97461.56
2023-03-06T06:57:35.346Z,97458.06
2023-03-06T07:00:02.707Z,97465.88
2023-03-06T07:02:30.135Z,97468.13
2023-03-06T07:05:04.184Z,97452.63
2023-03-06T07:07:35.316Z,97455.09
2023-03-06T07:10:07.224Z,97457.94
2023-03-06T07:12:35.331Z,97460.16
2023-03-06T07:15:03.323Z,97450.09
2023-03-06T07:17:30.522Z,97447.72
2023-03-06T07:19:57.623Z,97453.00
2023-03-06T07:22:24.786Z,97453.41
2023-03-06T07:24:51.966Z,97467.88
2023-03-06T07:27:19.362Z,97444.63
2023-03-06T07:29:46.744Z,97462.22
2023-03-06T07:32:13.900Z,97460.59
2023-03-06T07:34:41.055Z,97457.47
2023-03-06T07:37:08.260Z,97467.34
2023-03-06T07:39:35.590Z,97460.59
2023-03-06T07:42:02.847Z,97475.09
2023-03-06T07:44:30.105Z,97478.78
2023-03-06T07:46:57.189Z,97475.25
2023-03-06T07:49:24.290Z,97469.50
2023-03-06T07:51:51.345Z,97476.56
2023-03-06T07:54:18.455Z,97477.56
2023-03-06T07:56:45.679Z,97467.47
2023-03-06T07:59:12.745Z,97473.94
2023-03-06T08:01:40.422Z,97469.28
2023-03-06T08:04:07.649Z,97466.81
2023-03-06T08:06:34.746Z,97474.66
2023-03-06T08:09:01.830Z,97473.97
2023-03-06T08:11:30.857Z,97475.75
2023-03-06T08:13:58.657Z,97468.44
2023-03-06T08:16:28.419Z,97469.25
2023-03-06T08:18:56.322Z,97468.00
2023-03-06T08:21:26.018Z,97468.06
2023-03-06T08:23:53.479Z,97470.81
2023-03-06T08:26:24.266Z,97476.09
2023-03-06T08:28:52.711Z,97464.44
2023-03-06T08:31:31.727Z,97466.03
2023-03-06T08:34:01.587Z,97470.91
2023-03-06T08:36:29.138Z,97469.31
2023-03-06T08:38:56.499Z,97474.59
2023-03-06T08:41:23.638Z,97482.00
2023-03-06T08:43:51.554Z,97480.50
2023-03-06T08:46:19.464Z,97484.13
2023-03-06T08:48:49.814Z,97479.97
2023-03-06T08:51:18.597Z,97471.94
2023-03-06T08:53:46.589Z,97470.19
2023-03-06T08:56:18.360Z,97473.25
2023-03-06T08:58:45.654Z,97471.22
2023-03-06T09:01:21.499Z,97471.84
2023-03-06T09:03:49.271Z,97470.72
2023-03-06T09:06:17.659Z,97466.16
2023-03-06T09:08:44.906Z,97469.63
2023-03-06T09:11:16.027Z,97457.59
2023-03-06T09:13:43.832Z,97460.69
2023-03-06T09:16:11.891Z,97461.91
2023-03-06T09:18:39.100Z,97458.69
2023-03-06T09:21:08.225Z,97454.53
2023-03-06T09:23:36.196Z,97475.47
2023-03-06T09:26:03.780Z,97464.00
2023-03-06T09:28:31.266Z,97465.47
2023-03-06T09:30:58.767Z,97468.84
2023-03-06T09:33:27.027Z,97466.81
2023-03-06T09:35:56.353Z,97470.28
2023-03-06T09:38:26.603Z,97466.28
2023-03-06T09:41:06.127Z,97466.84
2023-03-06T09:43:39.361Z,97468.50
2023-03-06T10:17:22.415Z,97472.78
2023-03-06T10:19:50.011Z,97474.69
2023-03-06T10:22:30.799Z,97478.09
2023-03-06T10:25:14.282Z,97461.34
2023-03-06T10:27:44.244Z,97462.72
2023-03-06T10:30:17.003Z,97458.81
2023-03-06T10:32:58.645Z,97458.47
2023-03-06T10:35:31.620Z,97449.75
2023-03-06T10:38:24.623Z,97454.69
2023-03-06T10:41:13.380Z,97459.31
2023-03-06T10:44:02.903Z,97449.44
2023-03-06T10:46:34.521Z,97449.53
2023-03-06T10:49:06.386Z,97442.09
2023-03-06T10:51:35.657Z,97448.50
2023-03-06T10:54:19.621Z,97456.13
2023-03-06T10:56:47.751Z,97447.69
2023-03-06T10:59:17.891Z,97448.72
2023-03-06T11:01:52.637Z,97445.44
2023-03-06T11:04:23.593Z,97433.84
2023-03-06T11:07:22.795Z,97429.94
2023-03-06T11:09:58.799Z,97436.28
2023-03-06T11:12:32.390Z,97433.97
2023-03-06T11:15:10.168Z,97436.44
2023-03-06T11:17:59.477Z,97428.78
2023-03-06T11:20:50.962Z,97431.19
2023-03-06T11:23:45.805Z,97419.63
2023-03-06T11:26:20.240Z,97427.91
2023-03-06T11:29:19.982Z,97419.97
2023-03-06T11:31:53.222Z,97414.19
2023-03-06T11:34:39.617Z,97418.09
2023-03-06T11:37:31.092Z,97426.19
2023-03-06T11:40:05.954Z,97416.94
2023-03-06T11:42:40.971Z,97418.53
2023-03-06T11:45:24.204Z,97399.91
2023-03-06T11:48:03.103Z,97407.13
2023-03-06T11:50:38.765Z,97403.78
2023-03-06T11:53:11.057Z,97403.94
2023-03-06T11:55:56.009Z,97414.16
2023-03-06T11:58:57.189Z,97408.47
2023-03-06T12:01:57.744Z,97409.13
2023-03-06T12:04:53.732Z,97395.69
2023-03-06T12:07:34.125Z,97407.75
2023-03-06T12:10:38.714Z,97417.66
2023-03-06T12:16:05.756Z,97407.78
2023-03-06T12:18:41.970Z,97415.94
2023-03-06T12:21:27.194Z,97416.56
2023-03-06T12:24:00.488Z,97408.53
2023-03-06T12:27:07.614Z,97414.91
2023-03-06T12:29:37.257Z,97410.31
2023-03-06T12:32:21.438Z,97410.50
2023-03-06T12:35:04.081Z,97413.28
2023-03-06T12:38:18.602Z,97411.88
2023-03-06T12:41:14.991Z,97400.84
2023-03-06T12:43:54.748Z,97398.47
2023-03-06T12:46:23.733Z,97397.38
2023-03-06T12:49:09.369Z,97392.56
2023-03-06T12:51:37.834Z,97391.28
2023-03-06T12:54:05.417Z,97387.53
2023-03-06T12:56:34.736Z,97390.84
2023-03-06T12:59:06.070Z,97382.56
2023-03-06T13:01:33.153Z,97378.59
2023-03-06T13:04:20.418Z,97392.38
2023-03-06T13:07:04.323Z,97388.28
2023-03-06T13:10:07.209Z,97390.75
2023-03-06T13:12:55.784Z,97395.19
2023-03-06T13:15:39.727Z,97384.16
2023-03-06T13:18:21.982Z,97382.78
2023-03-06T13:20:50.367Z,97373.13
2023-03-06T13:23:29.771Z,97363.19
2023-03-06T13:25:59.842Z,97378.00
2023-03-06T13:28:40.398Z,97367.56
2023-03-06T13:31:18.209Z,97364.81
2023-03-06T13:33:55.303Z,97375.63
2023-03-06T13:36:39.604Z,97369.25
2023-03-06T13:39:11.556Z,97376.75
2023-03-06T13:41:42.812Z,97375.75
2023-03-06T13:44:25.269Z,97376.41
2023-03-06T13:47:39.752Z,97373.69
2023-03-06T13:50:37.965Z,97365.72
2023-03-06T13:53:35.428Z,97371.31
2023-03-06T13:56:43.816Z,97372.31
2023-03-06T13:59:22.942Z,97372.81
2023-03-06T14:02:10.471Z,97368.44
2023-03-06T14:04:57.877Z,97367.22
2023-03-06T14:07:33.650Z,97357.72
2023-03-06T14:10:25.896Z,97363.63
2023-03-06T14:13:01.146Z,97361.31
2023-03-06T14:15:42.396Z,97349.31
2023-03-06T14:18:33.015Z,97354.44
2023-03-06T14:21:00.134Z,97354.72
2023-03-06T14:23:42.763Z,97351.94
2023-03-06T14:26:17.656Z,97343.41
2023-03-06T14:29:05.056Z,97347.84
2023-03-06T14:31:41.034Z,97350.97
2023-03-06T14:34:18.349Z,97346.19
2023-03-06T14:36:49.284Z,97345.72
2023-03-06T14:39:27.618Z,97343.25
2023-03-06T14:42:25.605Z,97340.44
2023-03-06T14:45:16.488Z,97346.25
2023-03-06T14:47:49.321Z,97350.41
2023-03-06T14:50:24.277Z,97344.63
2023-03-06T14:52:56.226Z,97348.19
2023-03-06T14:55:26.160Z,97344.09
2023-03-06T14:57:58.498Z,97341.38
2023-03-06T15:00:33.459Z,97345.16
2023-03-06T15:03:00.913Z,97349.16
2023-03-06T15:05:30.929Z,97352.38
2023-03-06T15:08:02.674Z,97354.13
2023-03-06T15:10:32.603Z,97342.97
2023-03-06T15:13:11.479Z,97356.34
2023-03-06T15:15:38.813Z,97352.59
2023-03-06T15:18:28.918Z,97354.91
2023-03-06T15:21:10.884Z,97358.28
2023-03-06T15:23:44.283Z,97359.59
2023-03-06T15:26:31.548Z,97365.38
2023-03-06T15:29:11.135Z,97364.19
2023-03-06T15:31:43.816Z,97363.13
2023-03-06T15:38:02.968Z,97361.94
2023-03-06T15:40:32.074Z,97365.59
2023-03-06T15:42:59.503Z,97375.09
2023-03-06T15:45:29.559Z,97370.56
2023-03-06T15:47:56.687Z,97372.78
2023-03-06T15:50:29.443Z,97367.47
2023-03-06T15:52:56.709Z,97368.94
2023-03-06T15:55:26.252Z,97364.75
2023-03-06T15:57:59.926Z,97372.09
2023-03-06T16:00:34.340Z,97372.09
2023-03-06T16:03:03.036Z,97376.53
2023-03-06T16:05:30.499Z,97380.03
2023-03-06T16:07:57.868Z,97385.44
2023-03-06T16:10:28.027Z,97379.97
2023-03-06T16:12:59.970Z,97378.91
2023-03-06T16:15:31.055Z,97381.22
2023-03-06T16:17:59.044Z,97381.88
2023-03-06T16:20:29.958Z,97386.38
2023-03-06T16:22:57.238Z,97381.88
2023-03-06T16:25:28.303Z,97390.41
2023-03-06T16:28:01.185Z,97399.13
2023-03-06T16:30:33.521Z,97399.34
2023-03-06T16:33:01.944Z,97410.00
2023-03-06T16:35:29.108Z,97408.06
2023-03-06T16:37:56.271Z,97403.69
2023-03-06T16:40:27.472Z,97411.06
2023-03-06T16:42:55.346Z,97407.91
2023-03-06T16:45:23.519Z,97409.78
2023-03-06T16:47:51.133Z,97406.22
2023-03-06T16:50:33.328Z,97412.72
2023-03-06T16:53:00.409Z,97409.13
2023-03-06T16:55:27.862Z,97415.06
2023-03-06T16:57:55.097Z,97410.09
2023-03-06T17:00:25.001Z,97415.84
2023-03-06T17:02:52.697Z,97419.41
2023-03-06T17:05:20.161Z,97418.94
2023-03-06T17:07:47.582Z,97417.44
2023-03-06T17:10:16.701Z,97407.00
2023-03-06T17:12:43.821Z,97414.38
2023-03-06T17:15:11.992Z,97419.03
2023-03-06T17:17:39.104Z,97420.88
2023-03-06T17:20:12.695Z,97425.72
2023-03-06T17:22:40.685Z,97427.84
2023-03-06T17:25:08.917Z,97425.50
2023-03-06T17:27:36.536Z,97426.94
2023-03-06T17:30:05.353Z,97428.84
2023-03-06T17:32:33.014Z,97430.88
2023-03-06T17:35:00.180Z,97432.25
2023-03-06T17:37:27.338Z,97433.34
2023-03-06T17:39:54.520Z,97435.28
2023-03-06T17:42:21.737Z,97438.06
2023-03-06T17:44:48.801Z,97437.06
2023-03-06T17:47:15.890Z,97433.94
2023-03-06T17:49:43.159Z,97438.34
2023-03-06T17:52:10.411Z,97433.25
2023-03-06T17:54:37.642Z,97437.66
2023-03-06T17:57:05.849Z,97435.59
2023-03-06T17:59:36.621Z,97433.31
2023-03-06T18:02:06.372Z,97430.63
2023-03-06T18:04:33.674Z,97438.59
2023-03-06T18:07:00.811Z,97439.72
2023-03-06T18:09:27.906Z,97438.88
2023-03-06T18:11:54.994Z,97443.38
2023-03-06T18:14:22.165Z,97429.72
2023-03-06T18:16:49.431Z,97425.94
2023-03-06T18:19:17.844Z,97427.97
2023-03-06T18:21:47.347Z,97429.00
2023-03-06T18:24:14.567Z,97432.75
2023-03-06T18:26:42.576Z,97428.72
2023-03-06T18:29:09.725Z,97428.47
2023-03-06T18:31:38.785Z,97430.47
2023-03-06T18:34:10.092Z,97425.00
2023-03-06T18:36:37.572Z,97436.25
2023-03-06T18:39:08.755Z,97426.34
2023-03-06T18:41:36.479Z,97427.34
2023-03-06T18:44:04.378Z,97433.06
2023-03-06T18:46:35.278Z,97440.91
2023-03-06T18:49:02.904Z,97435.03
2023-03-06T18:51:30.217Z,97432.28
2023-03-06T18:53:58.525Z,97448.91
2023-03-06T18:56:26.134Z,97445.03
2023-03-06T18:58:54.053Z,97447.53
2023-03-06T19:01:22.810Z,97436.78
2023-03-06T19:03:50.039Z,97441.75
2023-03-06T19:06:18.281Z,97439.38
2023-03-06T19:08:45.381Z,97433.50
2023-03-06T19:11:17.282Z,97431.63
2023-03-06T19:13:44.888Z,97434.19
2023-03-06T19:16:20.891Z,97433.94
2023-03-06T19:18:48.907Z,97436.69
2023-03-06T19:21:18.826Z,97437.22
2023-03-06T19:23:46.711Z,97440.25
2023-03-06T19:26:14.466Z,97432.28
2023-03-06T19:28:43.397Z,97438.06
2023-03-06T19:31:19.504Z,97434.19
2023-03-06T19:33:48.893Z,97444.38
2023-03-06T19:36:18.530Z,97437.06
2023-03-06T19:38:50.441Z,97433.47
2023-03-06T19:41:17.939Z,97430.31
2023-03-06T19:43:45.064Z,97426.13
2023-03-06T19:46:13.528Z,97431.78
2023-03-06T19:48:41.814Z,97435.16
2023-03-06T19:51:09.001Z,97439.69
2023-03-06T19:53:36.786Z,97420.81
2023-03-06T19:56:18.410Z,97431.69
2023-03-06T19:58:45.754Z,97426.38
2023-03-06T20:01:15.340Z,97426.44
2023-03-06T20:03:42.945Z,97429.50
2023-03-06T20:06:18.720Z,97437.78
2023-03-06T20:08:47.206Z,97436.97
2023-03-06T20:11:22.710Z,97432.25
2023-03-06T20:13:49.954Z,97434.41
2023-03-06T20:16:18.199Z,97437.06
2023-03-06T20:18:45.876Z,97431.84
2023-03-06T20:21:13.851Z,97441.22
2023-03-06T20:23:41.507Z,97435.03
2023-03-06T20:26:12.265Z,97433.31
2023-03-06T20:28:40.550Z,97431.25
2023-03-06T20:31:11.287Z,97430.41
2023-03-06T20:33:38.506Z,97430.47
2023-03-06T20:36:12.361Z,97425.75
2023-03-06T20:38:39.584Z,97426.88
2023-03-06T20:41:08.947Z,97421.50
2023-03-06T20:43:36.055Z,97416.41
2023-03-06T20:46:04.225Z,97422.31
2023-03-06T20:48:31.626Z,97418.94
2023-03-06T20:51:00.477Z,97409.50
2023-03-06T20:53:27.588Z,97408.56
2023-03-06T20:55:54.783Z,97415.94
2023-03-06T20:58:23.520Z,97413.09
2023-03-06T21:00:50.638Z,97408.81
2023-03-06T21:03:17.760Z,97417.97
2023-03-06T21:05:48.093Z,97410.19
2023-03-06T21:08:16.040Z,97405.50
2023-03-06T21:10:45.009Z,97408.94
2023-03-06T21:13:12.187Z,97408.81
2023-03-06T21:15:40.787Z,97402.16
2023-03-06T21:18:09.048Z,97395.25
2023-03-06T21:20:39.701Z,97401.97
2023-03-06T21:23:07.337Z,97397.47
2023-03-06T21:25:34.692Z,97400.66
2023-03-06T21:28:01.878Z,97400.53
2023-03-06T21:30:29.489Z,97400.44
2023-03-06T21:32:56.877Z,97401.13
2023-03-06T21:35:24.054Z,97392.38
2023-03-06T21:37:51.799Z,97388.34
2023-03-06T21:40:19.133Z,97376.97
2023-03-06T21:42:46.203Z,97380.50
2023-03-06T21:45:13.332Z,97379.41
2023-03-06T21:47:41.145Z,97385.09
2023-03-06T21:50:10.849Z,97379.38
2023-03-06T21:52:38.030Z,97382.16
2023-03-06T21:55:06.139Z,97373.16
2023-03-06T21:57:33.264Z,97377.81
2023-03-06T22:00:00.481Z,97372.09
2023-03-06T22:02:27.664Z,97374.25
2023-03-06T22:04:54.876Z,97375.25
2023-03-06T22:07:23.061Z,97371.25
2023-03-06T22:09:53.505Z,97373.03
2023-03-06T22:12:21.489Z,97361.63
2023-03-06T22:14:48.576Z,97361.81
2023-03-06T22:17:15.783Z,97360.81
2023-03-06T22:19:42.838Z,97356.97
2023-03-06T22:22:10.779Z,97366.69
2023-03-06T22:24:37.986Z,97368.22
2023-03-06T22:27:05.388Z,97369.44
2023-03-06T22:29:32.470Z,97367.81
2023-03-06T22:31:59.730Z,97369.47
2023-03-06T22:34:26.898Z,97359.28
2023-03-06T22:36:54.065Z,97354.88
2023-03-06T22:39:21.268Z,97350.63
2023-03-06T22:41:48.589Z,97353.22
2023-03-06T22:44:18.536Z,97347.75
2023-03-06T22:46:46.383Z,97356.25
2023-03-06T22:49:14.904Z,97352.25
2023-03-06T22:51:41.929Z,97349.16
2023-03-06T22:54:09.857Z,97350.06
2023-03-06T22:56:37.006Z,97345.53
2023-03-06T22:59:04.596Z,97349.44
2023-03-06T23:01:34.114Z,97352.06
2023-03-06T23:04:04.034Z,97342.81
2023-03-06T23:06:33.682Z,97336.47
2023-03-06T23:09:22.533Z,97340.75
2023-03-06T23:12:09.309Z,97346.31
2023-03-06T23:14:55.142Z,97344.19
2023-03-06T23:17:40.917Z,97340.19
2023-03-06T23:20:26.751Z,97340.47
2023-03-06T23:23:12.717Z,97333.47
2023-03-06T23:25:43.667Z,97338.84
2023-03-06T23:28:11.536Z,97334.88
2023-03-06T23:30:40.219Z,97334.69
2023-03-06T23:33:07.937Z,97337.16
2023-03-06T23:35:36.156Z,97324.50
2023-03-06T23:38:03.625Z,97320.94
2023-03-06T23:40:33.708Z,97327.16
2023-03-06T23:43:01.359Z,97325.47
2023-03-06T23:45:28.509Z,97323.25
2023-03-06T23:47:55.909Z,97315.19
2023-03-06T23:50:24.390Z,97312.78
2023-03-06T23:52:55.660Z,97303.88
2023-03-06T23:55:22.898Z,97307.88
2023-03-06T23:57:49.996Z,97313.88
